sensor_id;sensor_type;location;lat;lon;timestamp;P1;durP1;ratioP1;P2;durP2;ratioP2
7931;SDS011;4011;49.424;10.894;2023-09-07T00:03:24;5.15;;;3.75;;
7931;SDS011;4011;49.424;10.894;2023-09-07T00:08:47;6.13;;;3.70;;
7931;SDS011;4011;49.424;10.894;2023-09-07T00:14:08;4.43;;;3.35;;
7931;SDS011;4011;49.424;10.894;2023-09-07T00:19:30;4.63;;;4.00;;
7931;SDS011;4011;49.424;10.894;2023-09-07T00:24:54;4.57;;;3.65;;
7931;SDS011;4011;49.424;10.894;2023-09-07T00:30:16;5.57;;;3.80;;
7931;SDS011;4011;49.424;10.894;2023-09-07T00:35:37;4.90;;;3.75;;
7931;SDS011;4011;49.424;10.894;2023-09-07T00:41:00;4.50;;;3.80;;
7931;SDS011;4011;49.424;10.894;2023-09-07T00:46:21;4.75;;;3.85;;
7931;SDS011;4011;49.424;10.894;2023-09-07T00:51:43;4.30;;;3.50;;
7931;SDS011;4011;49.424;10.894;2023-09-07T00:57:06;4.97;;;3.50;;
7931;SDS011;4011;49.424;10.894;2023-09-07T01:02:28;4.57;;;3.58;;
7931;SDS011;4011;49.424;10.894;2023-09-07T01:07:50;5.20;;;3.97;;
7931;SDS011;4011;49.424;10.894;2023-09-07T01:13:16;4.68;;;3.35;;
7931;SDS011;4011;49.424;10.894;2023-09-07T01:18:37;4.30;;;3.42;;
7931;SDS011;4011;49.424;10.894;2023-09-07T01:24:00;4.50;;;3.50;;
7931;SDS011;4011;49.424;10.894;2023-09-07T01:29:22;6.20;;;4.35;;
7931;SDS011;4011;49.424;10.894;2023-09-07T01:34:43;5.63;;;4.00;;
7931;SDS011;4011;49.424;10.894;2023-09-07T01:40:07;4.20;;;3.47;;
7931;SDS011;4011;49.424;10.894;2023-09-07T01:45:29;4.45;;;3.50;;
7931;SDS011;4011;49.424;10.894;2023-09-07T01:50:51;5.40;;;4.00;;
7931;SDS011;4011;49.424;10.894;2023-09-07T01:56:14;4.95;;;3.90;;
7931;SDS011;4011;49.424;10.894;2023-09-07T02:01:36;5.25;;;3.60;;
7931;SDS011;4011;49.424;10.894;2023-09-07T02:06:58;4.60;;;3.88;;
7931;SDS011;4011;49.424;10.894;2023-09-07T02:12:21;4.05;;;3.45;;
7931;SDS011;4011;49.424;10.894;2023-09-07T02:17:42;4.80;;;3.90;;
7931;SDS011;4011;49.424;10.894;2023-09-07T02:23:05;4.45;;;3.15;;
7931;SDS011;4011;49.424;10.894;2023-09-07T02:28:27;4.25;;;3.40;;
7931;SDS011;4011;49.424;10.894;2023-09-07T02:33:49;4.32;;;3.60;;
7931;SDS011;4011;49.424;10.894;2023-09-07T02:39:10;4.90;;;3.83;;
7931;SDS011;4011;49.424;10.894;2023-09-07T02:44:34;3.92;;;3.20;;
7931;SDS011;4011;49.424;10.894;2023-09-07T02:49:55;4.63;;;3.40;;
7931;SDS011;4011;49.424;10.894;2023-09-07T02:55:17;4.90;;;3.45;;
7931;SDS011;4011;49.424;10.894;2023-09-07T03:00:42;4.32;;;3.92;;
7931;SDS011;4011;49.424;10.894;2023-09-07T03:11:26;5.03;;;3.70;;
7931;SDS011;4011;49.424;10.894;2023-09-07T03:16:54;4.78;;;3.67;;
7931;SDS011;4011;49.424;10.894;2023-09-07T03:22:16;5.55;;;4.25;;
7931;SDS011;4011;49.424;10.894;2023-09-07T03:27:37;4.18;;;3.33;;
7931;SDS011;4011;49.424;10.894;2023-09-07T03:33:00;4.68;;;3.40;;
7931;SDS011;4011;49.424;10.894;2023-09-07T03:38:23;4.00;;;3.15;;
7931;SDS011;4011;49.424;10.894;2023-09-07T03:43:44;4.35;;;3.45;;
7931;SDS011;4011;49.424;10.894;2023-09-07T03:49:07;4.28;;;3.88;;
7931;SDS011;4011;49.424;10.894;2023-09-07T03:54:30;4.80;;;3.40;;
7931;SDS011;4011;49.424;10.894;2023-09-07T03:59:51;4.25;;;3.25;;
7931;SDS011;4011;49.424;10.894;2023-09-07T04:05:14;3.92;;;3.53;;
7931;SDS011;4011;49.424;10.894;2023-09-07T04:10:36;4.63;;;3.67;;
7931;SDS011;4011;49.424;10.894;2023-09-07T04:15:57;4.30;;;3.28;;
7931;SDS011;4011;49.424;10.894;2023-09-07T04:21:20;4.85;;;3.60;;
7931;SDS011;4011;49.424;10.894;2023-09-07T04:26:42;4.50;;;3.03;;
7931;SDS011;4011;49.424;10.894;2023-09-07T04:32:04;5.25;;;4.10;;
7931;SDS011;4011;49.424;10.894;2023-09-07T04:37:27;6.05;;;4.00;;
7931;SDS011;4011;49.424;10.894;2023-09-07T04:42:49;4.88;;;4.00;;
7931;SDS011;4011;49.424;10.894;2023-09-07T04:48:10;4.40;;;3.55;;
7931;SDS011;4011;49.424;10.894;2023-09-07T04:53:34;5.00;;;4.07;;
7931;SDS011;4011;49.424;10.894;2023-09-07T04:58:56;5.30;;;4.10;;
7931;SDS011;4011;49.424;10.894;2023-09-07T05:04:18;4.97;;;4.00;;
7931;SDS011;4011;49.424;10.894;2023-09-07T05:09:41;5.18;;;3.92;;
7931;SDS011;4011;49.424;10.894;2023-09-07T05:15:02;6.82;;;4.68;;
7931;SDS011;4011;49.424;10.894;2023-09-07T05:20:26;5.03;;;4.47;;
7931;SDS011;4011;49.424;10.894;2023-09-07T05:25:53;5.57;;;4.10;;
7931;SDS011;4011;49.424;10.894;2023-09-07T05:31:14;5.15;;;4.15;;
7931;SDS011;4011;49.424;10.894;2023-09-07T05:36:36;5.15;;;4.07;;
7931;SDS011;4011;49.424;10.894;2023-09-07T05:42:00;5.53;;;4.10;;
7931;SDS011;4011;49.424;10.894;2023-09-07T05:47:22;4.88;;;4.03;;
7931;SDS011;4011;49.424;10.894;2023-09-07T05:52:46;5.97;;;4.25;;
7931;SDS011;4011;49.424;10.894;2023-09-07T05:58:09;5.40;;;4.60;;
7931;SDS011;4011;49.424;10.894;2023-09-07T06:03:31;5.35;;;4.75;;
7931;SDS011;4011;49.424;10.894;2023-09-07T06:08:52;5.03;;;4.28;;
7931;SDS011;4011;49.424;10.894;2023-09-07T06:14:15;5.65;;;4.43;;
7931;SDS011;4011;49.424;10.894;2023-09-07T06:19:37;4.72;;;4.13;;
7931;SDS011;4011;49.424;10.894;2023-09-07T06:24:59;5.57;;;4.97;;
7931;SDS011;4011;49.424;10.894;2023-09-07T06:30:22;5.90;;;4.35;;
7931;SDS011;4011;49.424;10.894;2023-09-07T06:35:45;5.75;;;3.90;;
7931;SDS011;4011;49.424;10.894;2023-09-07T06:41:07;5.68;;;4.68;;
7931;SDS011;4011;49.424;10.894;2023-09-07T06:46:32;5.90;;;5.07;;
7931;SDS011;4011;49.424;10.894;2023-09-07T06:51:53;6.82;;;4.78;;
7931;SDS011;4011;49.424;10.894;2023-09-07T06:57:15;6.07;;;4.47;;
7931;SDS011;4011;49.424;10.894;2023-09-07T07:02:37;5.30;;;4.50;;
7931;SDS011;4011;49.424;10.894;2023-09-07T07:07:59;7.07;;;5.43;;
7931;SDS011;4011;49.424;10.894;2023-09-07T07:13:21;6.00;;;5.35;;
7931;SDS011;4011;49.424;10.894;2023-09-07T07:18:44;5.57;;;4.93;;
7931;SDS011;4011;49.424;10.894;2023-09-07T07:24:05;6.07;;;5.00;;
7931;SDS011;4011;49.424;10.894;2023-09-07T07:29:27;5.88;;;4.57;;
7931;SDS011;4011;49.424;10.894;2023-09-07T07:34:50;8.07;;;6.15;;
7931;SDS011;4011;49.424;10.894;2023-09-07T07:40:12;6.72;;;5.32;;
7931;SDS011;4011;49.424;10.894;2023-09-07T07:45:33;6.40;;;4.72;;
7931;SDS011;4011;49.424;10.894;2023-09-07T07:51:01;5.72;;;4.63;;
7931;SDS011;4011;49.424;10.894;2023-09-07T07:56:24;7.20;;;5.38;;
7931;SDS011;4011;49.424;10.894;2023-09-07T08:01:46;6.93;;;4.75;;
7931;SDS011;4011;49.424;10.894;2023-09-07T08:07:08;7.05;;;4.78;;
7931;SDS011;4011;49.424;10.894;2023-09-07T08:12:31;7.00;;;5.00;;
7931;SDS011;4011;49.424;10.894;2023-09-07T08:17:53;6.70;;;5.72;;
7931;SDS011;4011;49.424;10.894;2023-09-07T08:23:16;5.88;;;5.28;;
7931;SDS011;4011;49.424;10.894;2023-09-07T08:28:39;7.30;;;4.90;;
7931;SDS011;4011;49.424;10.894;2023-09-07T08:34:01;5.28;;;4.57;;
7931;SDS011;4011;49.424;10.894;2023-09-07T08:39:24;6.53;;;5.03;;
7931;SDS011;4011;49.424;10.894;2023-09-07T08:44:46;5.60;;;5.00;;
7931;SDS011;4011;49.424;10.894;2023-09-07T08:50:08;5.93;;;4.85;;
7931;SDS011;4011;49.424;10.894;2023-09-07T08:55:31;7.40;;;4.90;;
7931;SDS011;4011;49.424;10.894;2023-09-07T09:00:53;6.07;;;5.03;;
7931;SDS011;4011;49.424;10.894;2023-09-07T09:06:19;7.70;;;5.57;;
7931;SDS011;4011;49.424;10.894;2023-09-07T09:11:42;7.60;;;4.53;;
7931;SDS011;4011;49.424;10.894;2023-09-07T09:17:03;6.03;;;4.85;;
7931;SDS011;4011;49.424;10.894;2023-09-07T09:22:25;6.20;;;4.93;;
7931;SDS011;4011;49.424;10.894;2023-09-07T09:27:48;6.65;;;5.20;;
7931;SDS011;4011;49.424;10.894;2023-09-07T09:33:09;5.40;;;4.47;;
7931;SDS011;4011;49.424;10.894;2023-09-07T09:38:31;6.43;;;4.63;;
7931;SDS011;4011;49.424;10.894;2023-09-07T09:43:54;7.53;;;4.90;;
7931;SDS011;4011;49.424;10.894;2023-09-07T09:49:17;6.53;;;5.80;;
7931;SDS011;4011;49.424;10.894;2023-09-07T09:54:40;6.78;;;4.93;;
7931;SDS011;4011;49.424;10.894;2023-09-07T10:00:03;6.32;;;4.60;;
7931;SDS011;4011;49.424;10.894;2023-09-07T10:05:39;6.28;;;5.30;;
7931;SDS011;4011;49.424;10.894;2023-09-07T10:11:06;6.40;;;4.82;;
7931;SDS011;4011;49.424;10.894;2023-09-07T10:16:29;5.90;;;4.70;;
7931;SDS011;4011;49.424;10.894;2023-09-07T10:22:01;6.88;;;4.40;;
7931;SDS011;4011;49.424;10.894;2023-09-07T10:27:23;6.68;;;4.88;;
7931;SDS011;4011;49.424;10.894;2023-09-07T10:32:46;5.68;;;4.30;;
7931;SDS011;4011;49.424;10.894;2023-09-07T10:38:08;6.07;;;4.57;;
7931;SDS011;4011;49.424;10.894;2023-09-07T10:43:30;5.13;;;4.07;;
7931;SDS011;4011;49.424;10.894;2023-09-07T10:48:53;5.85;;;5.20;;
7931;SDS011;4011;49.424;10.894;2023-09-07T10:54:17;5.43;;;4.40;;
7931;SDS011;4011;49.424;10.894;2023-09-07T10:59:38;6.68;;;4.65;;
7931;SDS011;4011;49.424;10.894;2023-09-07T11:05:07;7.72;;;4.35;;
7931;SDS011;4011;49.424;10.894;2023-09-07T11:10:31;6.38;;;4.18;;
7931;SDS011;4011;49.424;10.894;2023-09-07T11:15:53;7.30;;;4.93;;
7931;SDS011;4011;49.424;10.894;2023-09-07T11:21:16;5.00;;;4.30;;
7931;SDS011;4011;49.424;10.894;2023-09-07T11:26:42;5.63;;;4.38;;
7931;SDS011;4011;49.424;10.894;2023-09-07T11:32:05;5.00;;;4.50;;
7931;SDS011;4011;49.424;10.894;2023-09-07T11:37:28;7.43;;;4.47;;
7931;SDS011;4011;49.424;10.894;2023-09-07T11:42:50;5.30;;;4.03;;
7931;SDS011;4011;49.424;10.894;2023-09-07T11:48:12;5.57;;;4.18;;
7931;SDS011;4011;49.424;10.894;2023-09-07T11:53:35;5.40;;;4.20;;
7931;SDS011;4011;49.424;10.894;2023-09-07T11:58:57;6.70;;;4.40;;
7931;SDS011;4011;49.424;10.894;2023-09-07T12:04:18;5.68;;;4.43;;
7931;SDS011;4011;49.424;10.894;2023-09-07T12:09:41;6.45;;;4.25;;
7931;SDS011;4011;49.424;10.894;2023-09-07T12:15:05;5.25;;;4.10;;
7931;SDS011;4011;49.424;10.894;2023-09-07T12:20:27;10.75;;;5.03;;
7931;SDS011;4011;49.424;10.894;2023-09-07T12:25:50;6.57;;;4.03;;
7931;SDS011;4011;49.424;10.894;2023-09-07T12:31:11;10.10;;;5.13;;
7931;SDS011;4011;49.424;10.894;2023-09-07T12:36:35;8.98;;;5.22;;
7931;SDS011;4011;49.424;10.894;2023-09-07T12:41:58;7.53;;;4.82;;
7931;SDS011;4011;49.424;10.894;2023-09-07T12:47:19;7.97;;;4.82;;
7931;SDS011;4011;49.424;10.894;2023-09-07T12:52:41;7.03;;;4.78;;
7931;SDS011;4011;49.424;10.894;2023-09-07T12:58:04;6.75;;;4.53;;
7931;SDS011;4011;49.424;10.894;2023-09-07T13:03:26;6.80;;;4.45;;
7931;SDS011;4011;49.424;10.894;2023-09-07T13:08:47;6.57;;;4.00;;
7931;SDS011;4011;49.424;10.894;2023-09-07T13:14:10;6.13;;;4.50;;
7931;SDS011;4011;49.424;10.894;2023-09-07T13:19:32;6.47;;;4.40;;
7931;SDS011;4011;49.424;10.894;2023-09-07T13:24:54;5.20;;;4.38;;
7931;SDS011;4011;49.424;10.894;2023-09-07T13:30:16;6.18;;;4.45;;
7931;SDS011;4011;49.424;10.894;2023-09-07T13:35:38;6.07;;;4.40;;
7931;SDS011;4011;49.424;10.894;2023-09-07T13:41:00;6.45;;;4.60;;
7931;SDS011;4011;49.424;10.894;2023-09-07T13:46:23;5.82;;;4.57;;
7931;SDS011;4011;49.424;10.894;2023-09-07T13:51:44;6.20;;;4.43;;
7931;SDS011;4011;49.424;10.894;2023-09-07T13:57:06;5.35;;;4.07;;
7931;SDS011;4011;49.424;10.894;2023-09-07T14:02:28;5.68;;;4.25;;
7931;SDS011;4011;49.424;10.894;2023-09-07T14:07:50;6.47;;;4.30;;
7931;SDS011;4011;49.424;10.894;2023-09-07T14:13:12;6.47;;;4.78;;
7931;SDS011;4011;49.424;10.894;2023-09-07T14:18:35;5.70;;;4.55;;
7931;SDS011;4011;49.424;10.894;2023-09-07T14:23:56;5.60;;;4.20;;
7931;SDS011;4011;49.424;10.894;2023-09-07T14:29:18;5.40;;;3.97;;
7931;SDS011;4011;49.424;10.894;2023-09-07T14:34:40;6.50;;;4.22;;
7931;SDS011;4011;49.424;10.894;2023-09-07T14:40:02;5.85;;;4.25;;
7931;SDS011;4011;49.424;10.894;2023-09-07T14:45:23;6.18;;;4.13;;
7931;SDS011;4011;49.424;10.894;2023-09-07T14:50:46;6.35;;;4.43;;
7931;SDS011;4011;49.424;10.894;2023-09-07T14:56:08;5.72;;;4.60;;
7931;SDS011;4011;49.424;10.894;2023-09-07T15:01:29;5.95;;;4.65;;
7931;SDS011;4011;49.424;10.894;2023-09-07T15:06:53;5.05;;;4.15;;
7931;SDS011;4011;49.424;10.894;2023-09-07T15:12:15;5.80;;;4.47;;
7931;SDS011;4011;49.424;10.894;2023-09-07T15:17:37;5.65;;;4.07;;
7931;SDS011;4011;49.424;10.894;2023-09-07T15:23:01;5.28;;;4.75;;
7931;SDS011;4011;49.424;10.894;2023-09-07T15:28:23;5.45;;;3.95;;
7931;SDS011;4011;49.424;10.894;2023-09-07T15:33:44;4.93;;;3.88;;
7931;SDS011;4011;49.424;10.894;2023-09-07T15:39:07;5.35;;;3.92;;
7931;SDS011;4011;49.424;10.894;2023-09-07T15:44:29;5.78;;;4.57;;
7931;SDS011;4011;49.424;10.894;2023-09-07T15:49:51;4.65;;;4.00;;
7931;SDS011;4011;49.424;10.894;2023-09-07T15:55:14;5.22;;;4.30;;
7931;SDS011;4011;49.424;10.894;2023-09-07T16:00:36;6.55;;;4.30;;
7931;SDS011;4011;49.424;10.894;2023-09-07T16:05:58;6.60;;;3.97;;
7931;SDS011;4011;49.424;10.894;2023-09-07T16:11:21;6.00;;;4.13;;
7931;SDS011;4011;49.424;10.894;2023-09-07T16:16:42;5.07;;;4.15;;
7931;SDS011;4011;49.424;10.894;2023-09-07T16:22:04;5.57;;;4.10;;
7931;SDS011;4011;49.424;10.894;2023-09-07T16:27:30;5.50;;;4.03;;
7931;SDS011;4011;49.424;10.894;2023-09-07T16:32:51;5.35;;;4.22;;
7931;SDS011;4011;49.424;10.894;2023-09-07T16:38:14;5.40;;;3.70;;
7931;SDS011;4011;49.424;10.894;2023-09-07T16:43:39;5.45;;;4.30;;
7931;SDS011;4011;49.424;10.894;2023-09-07T16:49:01;5.00;;;4.03;;
7931;SDS011;4011;49.424;10.894;2023-09-07T16:54:22;8.27;;;4.82;;
7931;SDS011;4011;49.424;10.894;2023-09-07T16:59:45;7.53;;;4.32;;
7931;SDS011;4011;49.424;10.894;2023-09-07T17:05:07;8.32;;;4.40;;
7931;SDS011;4011;49.424;10.894;2023-09-07T17:10:30;6.57;;;3.90;;
7931;SDS011;4011;49.424;10.894;2023-09-07T17:15:53;5.75;;;4.30;;
7931;SDS011;4011;49.424;10.894;2023-09-07T17:21:14;6.53;;;4.30;;
7931;SDS011;4011;49.424;10.894;2023-09-07T17:26:36;6.65;;;4.82;;
7931;SDS011;4011;49.424;10.894;2023-09-07T17:32:00;8.40;;;4.30;;
7931;SDS011;4011;49.424;10.894;2023-09-07T17:37:21;5.15;;;3.97;;
7931;SDS011;4011;49.424;10.894;2023-09-07T17:42:43;7.55;;;5.13;;
7931;SDS011;4011;49.424;10.894;2023-09-07T17:48:06;6.53;;;4.57;;
7931;SDS011;4011;49.424;10.894;2023-09-07T17:53:28;6.45;;;4.15;;
7931;SDS011;4011;49.424;10.894;2023-09-07T17:58:49;6.57;;;4.30;;
7931;SDS011;4011;49.424;10.894;2023-09-07T18:04:13;5.95;;;4.60;;
7931;SDS011;4011;49.424;10.894;2023-09-07T18:09:35;5.78;;;3.70;;
7931;SDS011;4011;49.424;10.894;2023-09-07T18:14:56;7.68;;;4.10;;
7931;SDS011;4011;49.424;10.894;2023-09-07T18:20:21;6.03;;;4.45;;
7931;SDS011;4011;49.424;10.894;2023-09-07T18:25:43;5.72;;;4.75;;
7931;SDS011;4011;49.424;10.894;2023-09-07T18:31:07;4.88;;;4.28;;
7931;SDS011;4011;49.424;10.894;2023-09-07T18:36:30;5.30;;;4.25;;
7931;SDS011;4011;49.424;10.894;2023-09-07T18:41:51;5.00;;;3.90;;
7931;SDS011;4011;49.424;10.894;2023-09-07T18:47:14;5.15;;;4.63;;
7931;SDS011;4011;49.424;10.894;2023-09-07T18:52:37;5.18;;;4.10;;
7931;SDS011;4011;49.424;10.894;2023-09-07T18:57:59;6.38;;;4.07;;
7931;SDS011;4011;49.424;10.894;2023-09-07T19:03:20;6.88;;;4.60;;
7931;SDS011;4011;49.424;10.894;2023-09-07T19:08:44;5.43;;;4.22;;
7931;SDS011;4011;49.424;10.894;2023-09-07T19:14:05;5.60;;;4.72;;
7931;SDS011;4011;49.424;10.894;2023-09-07T19:19:27;5.43;;;4.28;;
7931;SDS011;4011;49.424;10.894;2023-09-07T19:24:50;5.70;;;4.10;;
7931;SDS011;4011;49.424;10.894;2023-09-07T19:30:13;5.05;;;3.92;;
7931;SDS011;4011;49.424;10.894;2023-09-07T19:35:35;5.07;;;4.15;;
7931;SDS011;4011;49.424;10.894;2023-09-07T19:40:58;5.78;;;4.00;;
7931;SDS011;4011;49.424;10.894;2023-09-07T19:46:20;5.57;;;4.43;;
7931;SDS011;4011;49.424;10.894;2023-09-07T19:51:41;6.63;;;4.40;;
7931;SDS011;4011;49.424;10.894;2023-09-07T19:57:06;5.53;;;4.40;;
7931;SDS011;4011;49.424;10.894;2023-09-07T20:02:28;6.05;;;4.00;;
7931;SDS011;4011;49.424;10.894;2023-09-07T20:07:50;5.50;;;3.83;;
7931;SDS011;4011;49.424;10.894;2023-09-07T20:13:13;5.45;;;3.92;;
7931;SDS011;4011;49.424;10.894;2023-09-07T20:18:35;7.00;;;4.72;;
7931;SDS011;4011;49.424;10.894;2023-09-07T20:23:56;6.75;;;4.57;;
7931;SDS011;4011;49.424;10.894;2023-09-07T20:29:19;7.78;;;5.03;;
7931;SDS011;4011;49.424;10.894;2023-09-07T20:34:40;6.43;;;4.85;;
7931;SDS011;4011;49.424;10.894;2023-09-07T20:40:02;5.75;;;4.57;;
7931;SDS011;4011;49.424;10.894;2023-09-07T20:45:27;7.00;;;5.35;;
7931;SDS011;4011;49.424;10.894;2023-09-07T20:50:49;5.90;;;4.80;;
7931;SDS011;4011;49.424;10.894;2023-09-07T20:56:10;6.22;;;4.63;;
7931;SDS011;4011;49.424;10.894;2023-09-07T21:01:33;6.32;;;4.90;;
7931;SDS011;4011;49.424;10.894;2023-09-07T21:06:55;5.95;;;5.03;;
7931;SDS011;4011;49.424;10.894;2023-09-07T21:12:17;6.40;;;4.35;;
7931;SDS011;4011;49.424;10.894;2023-09-07T21:17:40;8.05;;;4.57;;
7931;SDS011;4011;49.424;10.894;2023-09-07T21:23:01;6.68;;;4.82;;
7931;SDS011;4011;49.424;10.894;2023-09-07T21:28:23;5.95;;;5.20;;
7931;SDS011;4011;49.424;10.894;2023-09-07T21:33:46;7.07;;;4.40;;
7931;SDS011;4011;49.424;10.894;2023-09-07T21:39:07;7.13;;;5.07;;
7931;SDS011;4011;49.424;10.894;2023-09-07T21:44:29;5.70;;;4.68;;
7931;SDS011;4011;49.424;10.894;2023-09-07T21:49:52;5.95;;;5.10;;
7931;SDS011;4011;49.424;10.894;2023-09-07T21:55:14;5.90;;;4.63;;
7931;SDS011;4011;49.424;10.894;2023-09-07T22:00:35;5.55;;;4.50;;
7931;SDS011;4011;49.424;10.894;2023-09-07T22:05:58;6.05;;;4.40;;
7931;SDS011;4011;49.424;10.894;2023-09-07T22:11:19;5.45;;;4.30;;
7931;SDS011;4011;49.424;10.894;2023-09-07T22:16:41;5.80;;;4.78;;
7931;SDS011;4011;49.424;10.894;2023-09-07T22:22:04;5.45;;;4.38;;
7931;SDS011;4011;49.424;10.894;2023-09-07T22:27:26;5.88;;;4.65;;
7931;SDS011;4011;49.424;10.894;2023-09-07T22:32:47;6.20;;;4.78;;
7931;SDS011;4011;49.424;10.894;2023-09-07T22:38:10;6.90;;;5.15;;
7931;SDS011;4011;49.424;10.894;2023-09-07T22:43:31;6.05;;;5.43;;
7931;SDS011;4011;49.424;10.894;2023-09-07T22:48:53;8.18;;;4.65;;
7931;SDS011;4011;49.424;10.894;2023-09-07T22:54:16;6.72;;;5.07;;
7931;SDS011;4011;49.424;10.894;2023-09-07T22:59:37;6.50;;;4.63;;
7931;SDS011;4011;49.424;10.894;2023-09-07T23:04:59;6.75;;;5.13;;
7931;SDS011;4011;49.424;10.894;2023-09-07T23:10:22;6.07;;;4.75;;
7931;SDS011;4011;49.424;10.894;2023-09-07T23:15:44;6.45;;;4.70;;
7931;SDS011;4011;49.424;10.894;2023-09-07T23:21:07;5.72;;;4.53;;
7931;SDS011;4011;49.424;10.894;2023-09-07T23:26:30;6.47;;;5.10;;
7931;SDS011;4011;49.424;10.894;2023-09-07T23:31:52;6.15;;;4.95;;
7931;SDS011;4011;49.424;10.894;2023-09-07T23:37:13;6.68;;;5.00;;
7931;SDS011;4011;49.424;10.894;2023-09-07T23:42:36;5.82;;;4.97;;
7931;SDS011;4011;49.424;10.894;2023-09-07T23:47:58;6.25;;;4.88;;
7931;SDS011;4011;49.424;10.894;2023-09-07T23:53:20;7.03;;;4.90;;
7931;SDS011;4011;49.424;10.894;2023-09-07T23:58:43;6.47;;;4.35;;
